sensor_id;sensor_type;location;lat;lon;timestamp;pressure;altitude;pressure_sealevel;temperature
60936;BMP280;46804;51.786;19.520;2023-02-23T00:03:49;153861.53;;;-1.06
60936;BMP280;46804;51.786;19.520;2023-02-23T00:07:50;153862.81;;;-1.06
60936;BMP280;46804;51.786;19.520;2023-02-23T00:11:54;153820.81;;;-1.22
60936;BMP280;46804;51.786;19.520;2023-02-23T00:15:55;153797.97;;;-1.31
60936;BMP280;46804;51.786;19.520;2023-02-23T00:19:56;153795.44;;;-1.32
60936;BMP280;46804;51.786;19.520;2023-02-23T00:24:03;153817.06;;;-1.24
60936;BMP280;46804;51.786;19.520;2023-02-23T00:28:04;153820.81;;;-1.22
60936;BMP280;46804;51.786;19.520;2023-02-23T00:32:06;153808.13;;;-1.27
60936;BMP280;46804;51.786;19.520;2023-02-23T00:36:10;153824.66;;;-1.21
60936;BMP280;46804;51.786;19.520;2023-02-23T00:40:12;153806.88;;;-1.28
60936;BMP280;46804;51.786;19.520;2023-02-23T00:44:15;153801.78;;;-1.30
60936;BMP280;46804;51.786;19.520;2023-02-23T00:48:16;153800.53;;;-1.30
60936;BMP280;46804;51.786;19.520;2023-02-23T00:52:17;153792.88;;;-1.33
60936;BMP280;46804;51.786;19.520;2023-02-23T00:56:18;153775.09;;;-1.40
60936;BMP280;46804;51.786;19.520;2023-02-23T01:00:18;153764.91;;;-1.44
60936;BMP280;46804;51.786;19.520;2023-02-23T01:04:20;153763.66;;;-1.44
60936;BMP280;46804;51.786;19.520;2023-02-23T01:08:22;153745.88;;;-1.51
60936;BMP280;46804;51.786;19.520;2023-02-23T01:12:22;153742.03;;;-1.53
60936;BMP280;46804;51.786;19.520;2023-02-23T01:16:27;153744.59;;;-1.52
60936;BMP280;46804;51.786;19.520;2023-02-23T01:20:28;153726.81;;;-1.59
60936;BMP280;46804;51.786;19.520;2023-02-23T01:24:29;153714.09;;;-1.64
60936;BMP280;46804;51.786;19.520;2023-02-23T01:28:30;153709.00;;;-1.66
60936;BMP280;46804;51.786;19.520;2023-02-23T01:32:33;153695.03;;;-1.71
60936;BMP280;46804;51.786;19.520;2023-02-23T01:36:36;153679.78;;;-1.77
60936;BMP280;46804;51.786;19.520;2023-02-23T01:40:41;153662.00;;;-1.84
60936;BMP280;46804;51.786;19.520;2023-02-23T01:48:43;153655.66;;;-1.86
60936;BMP280;46804;51.786;19.520;2023-02-23T01:52:45;153634.06;;;-1.95
60936;BMP280;46804;51.786;19.520;2023-02-23T01:56:49;153630.22;;;-1.96
60936;BMP280;46804;51.786;19.520;2023-02-23T02:00:58;153630.22;;;-1.96
60936;BMP280;46804;51.786;19.520;2023-02-23T02:05:03;153616.28;;;-2.02
60936;BMP280;46804;51.786;19.520;2023-02-23T02:09:10;153616.28;;;-2.02
60936;BMP280;46804;51.786;19.520;2023-02-23T02:13:18;153608.63;;;-2.04
60936;BMP280;46804;51.786;19.520;2023-02-23T02:26:41;153574.34;;;-2.18
60936;BMP280;46804;51.786;19.520;2023-02-23T02:31:11;153568.00;;;-2.20
60936;BMP280;46804;51.786;19.520;2023-02-23T02:48:05;153547.72;;;-2.28
60936;BMP280;46804;51.786;19.520;2023-02-23T02:52:18;153541.31;;;-2.31
60936;BMP280;46804;51.786;19.520;2023-02-23T02:56:22;153533.72;;;-2.34
60936;BMP280;46804;51.786;19.520;2023-02-23T03:00:37;153522.28;;;-2.38
60936;BMP280;46804;51.786;19.520;2023-02-23T03:04:56;153523.53;;;-2.38
60936;BMP280;46804;51.786;19.520;2023-02-23T03:09:36;153527.38;;;-2.36
60936;BMP280;46804;51.786;19.520;2023-02-23T03:19:26;153514.69;;;-2.41
60936;BMP280;46804;51.786;19.520;2023-02-23T03:28:12;153514.69;;;-2.41
60936;BMP280;46804;51.786;19.520;2023-02-23T03:32:36;153510.84;;;-2.42
60936;BMP280;46804;51.786;19.520;2023-02-23T03:37:05;153498.16;;;-2.47
60936;BMP280;46804;51.786;19.520;2023-02-23T03:41:27;153501.94;;;-2.46
60936;BMP280;46804;51.786;19.520;2023-02-23T03:45:47;153514.69;;;-2.41
60936;BMP280;46804;51.786;19.520;2023-02-23T03:50:13;153518.47;;;-2.39
60936;BMP280;46804;51.786;19.520;2023-02-23T03:54:38;153495.59;;;-2.48
60936;BMP280;46804;51.786;19.520;2023-02-23T03:58:59;153493.09;;;-2.49
60936;BMP280;46804;51.786;19.520;2023-02-23T04:03:22;153484.19;;;-2.53
60936;BMP280;46804;51.786;19.520;2023-02-23T04:07:46;153480.41;;;-2.54
60936;BMP280;46804;51.786;19.520;2023-02-23T04:16:27;153490.53;;;-2.50
60936;BMP280;46804;51.786;19.520;2023-02-23T04:20:28;153485.47;;;-2.52
60936;BMP280;46804;51.786;19.520;2023-02-23T04:24:29;153471.50;;;-2.58
60936;BMP280;46804;51.786;19.520;2023-02-23T04:28:30;153472.75;;;-2.57
60936;BMP280;46804;51.786;19.520;2023-02-23T04:32:31;153462.59;;;-2.61
60936;BMP280;46804;51.786;19.520;2023-02-23T04:36:32;153472.75;;;-2.57
60936;BMP280;46804;51.786;19.520;2023-02-23T04:40:33;153475.31;;;-2.56
60936;BMP280;46804;51.786;19.520;2023-02-23T04:44:34;153468.97;;;-2.59
60936;BMP280;46804;51.786;19.520;2023-02-23T04:48:34;153462.59;;;-2.61
60936;BMP280;46804;51.786;19.520;2023-02-23T04:52:36;153465.16;;;-2.60
60936;BMP280;46804;51.786;19.520;2023-02-23T04:56:38;153460.06;;;-2.62
60936;BMP280;46804;51.786;19.520;2023-02-23T05:00:39;153471.50;;;-2.58
60936;BMP280;46804;51.786;19.520;2023-02-23T05:04:40;153462.59;;;-2.61
60936;BMP280;46804;51.786;19.520;2023-02-23T05:08:41;153463.91;;;-2.61
60936;BMP280;46804;51.786;19.520;2023-02-23T05:12:42;153447.38;;;-2.67
60936;BMP280;46804;51.786;19.520;2023-02-23T05:16:43;153443.56;;;-2.69
60936;BMP280;46804;51.786;19.520;2023-02-23T05:20:43;153449.91;;;-2.66
60936;BMP280;46804;51.786;19.520;2023-02-23T05:24:44;153449.91;;;-2.66
60936;BMP280;46804;51.786;19.520;2023-02-23T05:28:45;153463.91;;;-2.61
60936;BMP280;46804;51.786;19.520;2023-02-23T05:32:45;153476.59;;;-2.56
60936;BMP280;46804;51.786;19.520;2023-02-23T05:36:46;153476.59;;;-2.56
60936;BMP280;46804;51.786;19.520;2023-02-23T05:40:47;153468.97;;;-2.59
60936;BMP280;46804;51.786;19.520;2023-02-23T05:44:47;153494.34;;;-2.49
60936;BMP280;46804;51.786;19.520;2023-02-23T05:48:48;153495.59;;;-2.48
60936;BMP280;46804;51.786;19.520;2023-02-23T05:52:49;153488.00;;;-2.51
60936;BMP280;46804;51.786;19.520;2023-02-23T05:56:50;153507.03;;;-2.44
60936;BMP280;46804;51.786;19.520;2023-02-23T06:00:50;153507.03;;;-2.44
60936;BMP280;46804;51.786;19.520;2023-02-23T06:04:52;153529.88;;;-2.35
60936;BMP280;46804;51.786;19.520;2023-02-23T06:08:53;153532.44;;;-2.34
60936;BMP280;46804;51.786;19.520;2023-02-23T06:12:53;153547.72;;;-2.28
60936;BMP280;46804;51.786;19.520;2023-02-23T16:47:47;155458.59;;;5.11
60936;BMP280;46804;51.786;19.520;2023-02-23T16:51:49;155454.78;;;5.09
60936;BMP280;46804;51.786;19.520;2023-02-23T16:55:55;155434.31;;;5.02
60936;BMP280;46804;51.786;19.520;2023-02-23T17:00:00;155431.78;;;5.01
60936;BMP280;46804;51.786;19.520;2023-02-23T17:04:01;155416.44;;;4.95
60936;BMP280;46804;51.786;19.520;2023-02-23T17:08:02;155410.06;;;4.92
60936;BMP280;46804;51.786;19.520;2023-02-23T17:12:03;155410.06;;;4.92
60936;BMP280;46804;51.786;19.520;2023-02-23T17:16:05;155412.59;;;4.93
60936;BMP280;46804;51.786;19.520;2023-02-23T17:20:07;155397.31;;;4.87
60936;BMP280;46804;51.786;19.520;2023-02-23T17:24:15;155380.69;;;4.81
60936;BMP280;46804;51.786;19.520;2023-02-23T17:28:16;155362.75;;;4.74
60936;BMP280;46804;51.786;19.520;2023-02-23T17:32:17;155356.38;;;4.72
60936;BMP280;46804;51.786;19.520;2023-02-23T17:36:18;155361.50;;;4.73
60936;BMP280;46804;51.786;19.520;2023-02-23T17:40:23;155339.78;;;4.65
60936;BMP280;46804;51.786;19.520;2023-02-23T17:44:29;155319.38;;;4.57
60936;BMP280;46804;51.786;19.520;2023-02-23T17:48:30;155309.13;;;4.53
60936;BMP280;46804;51.786;19.520;2023-02-23T17:52:34;155309.13;;;4.53
60936;BMP280;46804;51.786;19.520;2023-02-23T17:56:34;155293.78;;;4.47
60936;BMP280;46804;51.786;19.520;2023-02-23T18:00:35;155295.06;;;4.48
60936;BMP280;46804;51.786;19.520;2023-02-23T18:04:38;155295.06;;;4.48
60936;BMP280;46804;51.786;19.520;2023-02-23T18:08:40;155279.78;;;4.42
60936;BMP280;46804;51.786;19.520;2023-02-23T18:12:41;155274.66;;;4.40
60936;BMP280;46804;51.786;19.520;2023-02-23T18:16:42;155283.56;;;4.43
60936;BMP280;46804;51.786;19.520;2023-02-23T18:20:55;155284.88;;;4.44
60936;BMP280;46804;51.786;19.520;2023-02-23T18:24:57;155279.78;;;4.42
60936;BMP280;46804;51.786;19.520;2023-02-23T18:28:58;155277.19;;;4.41
60936;BMP280;46804;51.786;19.520;2023-02-23T18:32:59;155275.94;;;4.40
60936;BMP280;46804;51.786;19.520;2023-02-23T18:37:00;155269.53;;;4.38
60936;BMP280;46804;51.786;19.520;2023-02-23T18:41:03;155270.81;;;4.38
60936;BMP280;46804;51.786;19.520;2023-02-23T18:45:05;155260.59;;;4.35
60936;BMP280;46804;51.786;19.520;2023-02-23T18:49:12;155264.44;;;4.36
60936;BMP280;46804;51.786;19.520;2023-02-23T18:53:13;155259.31;;;4.34
60936;BMP280;46804;51.786;19.520;2023-02-23T18:57:14;155252.94;;;4.32
60936;BMP280;46804;51.786;19.520;2023-02-23T19:01:18;155238.88;;;4.26
60936;BMP280;46804;51.786;19.520;2023-02-23T19:05:20;155238.88;;;4.26
60936;BMP280;46804;51.786;19.520;2023-02-23T19:09:21;155219.75;;;4.19
60936;BMP280;46804;51.786;19.520;2023-02-23T19:13:21;155213.34;;;4.16
60936;BMP280;46804;51.786;19.520;2023-02-23T19:17:26;155196.75;;;4.10
60936;BMP280;46804;51.786;19.520;2023-02-23T19:21:28;155180.16;;;4.04
60936;BMP280;46804;51.786;19.520;2023-02-23T19:25:28;155181.41;;;4.04
60936;BMP280;46804;51.786;19.520;2023-02-23T19:29:29;155167.41;;;3.99
60936;BMP280;46804;51.786;19.520;2023-02-23T19:33:30;155159.72;;;3.96
60936;BMP280;46804;51.786;19.520;2023-02-23T19:37:31;155149.53;;;3.92
60936;BMP280;46804;51.786;19.520;2023-02-23T19:41:32;155136.72;;;3.87
60936;BMP280;46804;51.786;19.520;2023-02-23T19:45:33;155131.63;;;3.85
60936;BMP280;46804;51.786;19.520;2023-02-23T19:49:34;155117.59;;;3.79
60936;BMP280;46804;51.786;19.520;2023-02-23T19:53:35;155113.75;;;3.78
60936;BMP280;46804;51.786;19.520;2023-02-23T19:57:36;155104.84;;;3.74
60936;BMP280;46804;51.786;19.520;2023-02-23T20:01:37;155089.53;;;3.69
60936;BMP280;46804;51.786;19.520;2023-02-23T20:05:38;155080.56;;;3.65
60936;BMP280;46804;51.786;19.520;2023-02-23T20:09:43;155065.28;;;3.59
60936;BMP280;46804;51.786;19.520;2023-02-23T20:13:44;155055.06;;;3.55
60936;BMP280;46804;51.786;19.520;2023-02-23T20:17:45;155047.38;;;3.52
60936;BMP280;46804;51.786;19.520;2023-02-23T20:21:45;155042.31;;;3.50
60936;BMP280;46804;51.786;19.520;2023-02-23T20:25:47;155032.09;;;3.46
60936;BMP280;46804;51.786;19.520;2023-02-23T20:29:47;155027.00;;;3.44
60936;BMP280;46804;51.786;19.520;2023-02-23T20:33:51;155029.53;;;3.45
60936;BMP280;46804;51.786;19.520;2023-02-23T20:37:52;155023.16;;;3.43
60936;BMP280;46804;51.786;19.520;2023-02-23T20:41:53;155012.94;;;3.39
60936;BMP280;46804;51.786;19.520;2023-02-23T20:45:53;155011.66;;;3.38
60936;BMP280;46804;51.786;19.520;2023-02-23T20:49:54;155016.78;;;3.40
60936;BMP280;46804;51.786;19.520;2023-02-23T20:53:55;155015.50;;;3.40
60936;BMP280;46804;51.786;19.520;2023-02-23T20:57:56;155021.88;;;3.42
60936;BMP280;46804;51.786;19.520;2023-02-23T21:01:57;155027.00;;;3.44
60936;BMP280;46804;51.786;19.520;2023-02-23T21:06:00;155038.47;;;3.49
60936;BMP280;46804;51.786;19.520;2023-02-23T21:10:01;155044.84;;;3.51
60936;BMP280;46804;51.786;19.520;2023-02-23T21:14:02;155049.97;;;3.53
60936;BMP280;46804;51.786;19.520;2023-02-23T21:18:06;155052.50;;;3.54
60936;BMP280;46804;51.786;19.520;2023-02-23T21:22:07;155044.84;;;3.51
60936;BMP280;46804;51.786;19.520;2023-02-23T21:26:09;155044.84;;;3.51
60936;BMP280;46804;51.786;19.520;2023-02-23T21:30:15;155042.31;;;3.50
60936;BMP280;46804;51.786;19.520;2023-02-23T21:34:18;155051.22;;;3.54
60936;BMP280;46804;51.786;19.520;2023-02-23T21:38:19;155061.44;;;3.58
60936;BMP280;46804;51.786;19.520;2023-02-23T21:42:20;155084.41;;;3.67
60936;BMP280;46804;51.786;19.520;2023-02-23T21:46:21;155097.16;;;3.71
60936;BMP280;46804;51.786;19.520;2023-02-23T21:50:22;155116.34;;;3.79
60936;BMP280;46804;51.786;19.520;2023-02-23T21:54:23;155136.72;;;3.87
60936;BMP280;46804;51.786;19.520;2023-02-23T21:58:24;155150.81;;;3.92
60936;BMP280;46804;51.786;19.520;2023-02-23T22:02:26;155182.72;;;4.05
60936;BMP280;46804;51.786;19.520;2023-02-23T22:06:37;155194.22;;;4.09
60936;BMP280;46804;51.786;19.520;2023-02-23T22:10:38;155210.78;;;4.15
60936;BMP280;46804;51.786;19.520;2023-02-23T22:14:39;155218.47;;;4.18
60936;BMP280;46804;51.786;19.520;2023-02-23T22:18:40;155231.22;;;4.23
60936;BMP280;46804;51.786;19.520;2023-02-23T22:22:41;155229.97;;;4.23
60936;BMP280;46804;51.786;19.520;2023-02-23T22:26:44;155249.09;;;4.30
60936;BMP280;46804;51.786;19.520;2023-02-23T22:30:55;155258.06;;;4.34
60936;BMP280;46804;51.786;19.520;2023-02-23T22:34:57;155251.69;;;4.31
60936;BMP280;46804;51.786;19.520;2023-02-23T22:38:58;155255.47;;;4.33
60936;BMP280;46804;51.786;19.520;2023-02-23T22:42:58;155256.78;;;4.33
60936;BMP280;46804;51.786;19.520;2023-02-23T22:46:59;155258.06;;;4.34
60936;BMP280;46804;51.786;19.520;2023-02-23T22:51:00;155269.53;;;4.38
60936;BMP280;46804;51.786;19.520;2023-02-23T22:55:01;155270.81;;;4.38
60936;BMP280;46804;51.786;19.520;2023-02-23T22:59:03;155279.78;;;4.42
60936;BMP280;46804;51.786;19.520;2023-02-23T23:03:08;155302.75;;;4.51
60936;BMP280;46804;51.786;19.520;2023-02-23T23:07:08;155310.41;;;4.54
60936;BMP280;46804;51.786;19.520;2023-02-23T23:11:15;155328.28;;;4.61
60936;BMP280;46804;51.786;19.520;2023-02-23T23:15:17;155342.34;;;4.66
60936;BMP280;46804;51.786;19.520;2023-02-23T23:19:21;155344.88;;;4.67
60936;BMP280;46804;51.786;19.520;2023-02-23T23:23:23;155361.50;;;4.73
60936;BMP280;46804;51.786;19.520;2023-02-23T23:27:25;155387.06;;;4.83
60936;BMP280;46804;51.786;19.520;2023-02-23T23:31:28;155425.41;;;4.98
60936;BMP280;46804;51.786;19.520;2023-02-23T23:35:29;155471.41;;;5.16
60936;BMP280;46804;51.786;19.520;2023-02-23T23:39:29;155499.53;;;5.27
60936;BMP280;46804;51.786;19.520;2023-02-23T23:43:30;155525.06;;;5.37
60936;BMP280;46804;51.786;19.520;2023-02-23T23:47:31;155535.28;;;5.40
60936;BMP280;46804;51.786;19.520;2023-02-23T23:51:34;155540.41;;;5.42
60936;BMP280;46804;51.786;19.520;2023-02-23T23:55:38;155548.06;;;5.45
60936;BMP280;46804;51.786;19.520;2023-02-23T23:59:38;155545.53;;;5.44
